Time;durP1;ratioP1;P1;durP2;ratioP2;P2;SDS_P1;SDS_P2;PMS_P1;PMS_P2;Temp;Humidity;BMP_temperature;BMP_pressure;BME280_temperature;BME280_humidity;BME280_pressure;Samples;Min_cycle;Max_cycle;Signal;HPM_P1;HPM_P2
2022/08/16 00:00:44;;;;;;;23.30;13.98;;;;;;;21.73;100.00;100160.74;1613107;87;21052;-91
2022/08/16 00:03:17;;;;;;;22.95;13.35;;;;;;;21.70;100.00;100159.00;1638754;87;21547;-91
2022/08/16 00:05:44;;;;;;;20.68;13.22;;;;;;;21.67;100.00;100161.52;1638881;87;21175;-91
2022/08/16 00:08:11;;;;;;;21.02;13.00;;;;;;;21.65;100.00;100154.79;1638881;87;21168;-91
2022/08/16 00:10:38;;;;;;;21.48;13.88;;;;;;;21.62;100.00;100158.66;1639118;87;21105;-91
2022/08/16 00:13:08;;;;;;;20.60;13.72;;;;;;;21.61;100.00;100152.25;1638922;87;21505;-92
2022/08/16 00:15:46;;;;;;;18.62;13.60;;;;;;;21.60;100.00;100151.41;1638658;87;21109;-93
2022/08/16 00:18:16;;;;;;;19.12;12.88;;;;;;;21.62;100.00;100159.98;1638958;87;21107;-91
2022/08/16 00:20:46;;;;;;;17.23;13.10;;;;;;;21.63;100.00;100166.11;1638848;87;21176;-91
2022/08/16 00:23:14;;;;;;;20.68;13.68;;;;;;;21.65;100.00;100173.33;1638966;87;22028;-91
2022/08/16 00:25:41;;;;;;;19.12;12.50;;;;;;;21.67;100.00;100181.38;1638731;87;21112;-91
2022/08/16 00:28:08;;;;;;;19.05;13.58;;;;;;;21.71;100.00;100191.91;1638766;87;21069;-91
2022/08/16 00:30:36;;;;;;;16.45;13.45;;;;;;;21.72;100.00;100192.22;1638867;87;21519;-91
2022/08/16 00:33:23;;;;;;;15.32;12.95;;;;;;;21.72;100.00;100194.88;1638733;87;21055;-91
2022/08/16 00:35:51;;;;;;;15.25;12.28;;;;;;;21.72;100.00;100194.04;1638742;87;21121;-91
2022/08/16 00:38:18;;;;;;;16.20;12.30;;;;;;;21.70;100.00;100200.87;1639070;87;21610;-91
2022/08/16 00:40:49;;;;;;;22.13;14.35;;;;;;;21.72;100.00;100209.44;1638822;87;21081;-92
2022/08/16 00:43:23;;;;;;;18.42;14.73;;;;;;;21.72;100.00;100204.14;1635917;87;21045;-91
2022/08/16 00:46:13;;;;;;;22.60;15.65;;;;;;;21.74;100.00;100192.84;1635488;87;21256;-91
2022/08/16 00:48:43;;;;;;;23.02;16.70;;;;;;;21.75;100.00;100177.75;1640977;86;21477;-91
2022/08/16 00:51:16;;;;;;;18.53;16.60;;;;;;;21.80;100.00;100174.50;1662424;86;21597;-92
2022/08/16 00:53:48;;;;;;;25.12;17.37;;;;;;;21.81;100.00;100163.70;1662186;86;21063;-91
2022/08/16 00:56:21;;;;;;;21.05;17.73;;;;;;;21.81;100.00;100158.39;1662228;86;21537;-91
2022/08/16 00:58:48;;;;;;;20.85;17.25;;;;;;;21.81;100.00;100168.19;1662568;86;21150;-90
2022/08/16 01:01:21;;;;;;;20.75;18.35;;;;;;;21.80;100.00;100162.58;1662148;86;20999;-91
2022/08/16 01:03:53;;;;;;;19.57;17.15;;;;;;;21.81;100.00;100147.80;1662657;86;21044;-90
2022/08/16 01:06:27;;;;;;;20.45;16.35;;;;;;;21.82;100.00;100142.81;1662004;86;21040;-90
2022/08/16 01:08:57;;;;;;;19.55;14.93;;;;;;;21.81;100.00;100139.84;1662475;85;21056;-90
2022/08/16 01:11:27;;;;;;;18.10;14.63;;;;;;;21.79;100.00;100147.20;1662192;86;21151;-91
2022/08/16 01:14:00;;;;;;;22.67;15.98;;;;;;;21.81;100.00;100141.17;1662307;86;21040;-91
2022/08/16 01:16:29;;;;;;;17.50;15.28;;;;;;;21.78;100.00;100120.89;1657283;86;21589;-91
2022/08/16 01:19:04;;;;;;;19.90;14.58;;;;;;;21.71;100.00;100115.59;1662471;86;21127;-92
2022/08/16 01:21:56;;;;;;;23.80;13.78;;;;;;;21.59;100.00;100098.95;1677798;85;21076;-90
2022/08/16 01:24:35;;;;;;;17.62;12.90;;;;;;;21.44;100.00;100091.66;1680923;85;21144;-90
2022/08/16 01:27:24;;;;;;;18.00;12.65;;;;;;;21.34;100.00;100115.04;1680839;85;21107;-91
2022/08/16 01:30:00;;;;;;;17.85;12.63;;;;;;;21.31;100.00;100128.17;1681272;85;21632;-90
2022/08/16 01:32:35;;;;;;;15.03;12.50;;;;;;;21.35;100.00;100140.52;1676004;85;21012;-90
2022/08/16 01:35:12;;;;;;;18.48;14.07;;;;;;;21.36;100.00;100139.50;1681214;85;21091;-91
2022/08/16 01:37:46;;;;;;;19.82;14.87;;;;;;;21.33;100.00;100130.12;1680721;85;21121;-90
2022/08/16 01:40:16;;;;;;;17.52;15.65;;;;;;;21.27;100.00;100125.11;1677607;85;21075;-91
2022/08/16 01:42:46;;;;;;;21.45;16.02;;;;;;;21.24;100.00;100126.02;1680842;85;21083;-91
2022/08/16 01:45:15;;;;;;;20.15;16.00;;;;;;;21.23;100.00;100133.13;1681131;85;21574;-91
2022/08/16 01:47:45;;;;;;;18.55;14.63;;;;;;;21.25;100.00;100134.27;1680884;85;21000;-91
2022/08/16 01:50:16;;;;;;;24.43;14.55;;;;;;;21.25;100.00;100139.56;1678547;85;21164;-91
2022/08/16 01:52:49;;;;;;;24.70;14.23;;;;;;;21.26;100.00;100137.23;1660081;86;21056;-91
2022/08/16 01:55:20;;;;;;;17.40;13.83;;;;;;;21.27;100.00;100144.16;1657291;86;21313;-91
2022/08/16 01:57:48;;;;;;;20.60;14.20;;;;;;;21.30;100.00;100138.45;1659793;86;21087;-91
2022/08/16 02:00:18;;;;;;;17.17;13.80;;;;;;;21.33;100.00;100137.23;1660159;86;21094;-91
2022/08/16 02:02:50;;;;;;;20.90;13.13;;;;;;;21.36;100.00;100130.23;1660021;86;21158;-92
2022/08/16 02:05:20;;;;;;;15.72;13.30;;;;;;;21.40;100.00;100127.48;1659646;86;21048;-91
2022/08/16 02:07:47;;;;;;;15.40;13.80;;;;;;;21.44;100.00;100132.18;1659959;86;21506;-91
2022/08/16 02:10:15;;;;;;;18.30;14.38;;;;;;;21.46;100.00;100129.84;1659882;86;21087;-91
2022/08/16 02:12:47;;;;;;;16.52;13.50;;;;;;;21.46;100.00;100138.63;1659947;86;21557;-91
2022/08/16 02:15:16;;;;;;;19.15;14.53;;;;;;;21.48;100.00;100146.36;1659952;86;21142;-91
2022/08/16 02:17:43;;;;;;;18.27;13.43;;;;;;;21.50;100.00;100161.55;1659778;86;21549;-90
2022/08/16 02:20:11;;;;;;;20.23;13.78;;;;;;;21.51;100.00;100160.55;1657217;86;21641;-91
2022/08/16 02:22:44;;;;;;;14.73;12.37;;;;;;;21.53;100.00;100171.25;1659829;86;21092;-90
2022/08/16 02:25:16;;;;;;;14.47;12.73;;;;;;;21.57;100.00;100175.64;1659998;86;21164;-90
2022/08/16 02:27:47;;;;;;;14.53;11.97;;;;;;;21.60;100.00;100180.55;1659785;86;21163;-90
2022/08/16 02:30:24;;;;;;;17.32;13.70;;;;;;;21.63;100.00;100182.81;1659885;86;21063;-90
2022/08/16 02:32:51;;;;;;;18.42;12.60;;;;;;;21.65;100.00;100194.03;1655235;86;21048;-90
2022/08/16 02:35:21;;;;;;;18.15;13.38;;;;;;;21.59;100.00;100200.94;1660056;86;21538;-90
2022/08/16 02:37:53;;;;;;;21.57;13.60;;;;;;;21.56;100.00;100209.76;1659900;86;21112;-91
2022/08/16 02:40:24;;;;;;;16.20;12.93;;;;;;;21.51;100.00;100210.88;1660159;86;21127;-90
2022/08/16 02:42:54;;;;;;;15.03;13.53;;;;;;;21.48;100.00;100201.98;1659949;86;21685;-90
2022/08/16 02:45:25;;;;;;;22.20;14.83;;;;;;;21.43;100.00;100231.19;1660210;86;21084;-90
2022/08/16 02:47:54;;;;;;;20.15;16.45;;;;;;;21.41;100.00;100224.45;1659976;86;21111;-90
2022/08/16 02:50:22;;;;;;;19.87;17.02;;;;;;;21.39;100.00;100225.98;1657033;86;21688;-91
2022/08/16 02:52:53;;;;;;;20.20;16.27;;;;;;;21.34;100.00;100242.14;1657707;86;21162;-90
2022/08/16 02:55:22;;;;;;;16.40;14.70;;;;;;;21.33;100.00;100236.53;1657284;86;21025;-91
2022/08/16 02:57:51;;;;;;;15.72;13.88;;;;;;;21.32;100.00;100253.42;1677545;85;21012;-91
2022/08/16 03:00:19;;;;;;;17.98;14.07;;;;;;;21.30;100.00;100268.20;1668182;83;21576;-91
2022/08/16 03:02:50;;;;;;;16.73;13.98;;;;;;;21.30;100.00;100260.77;1686511;85;21008;-91
2022/08/16 03:05:17;;;;;;;15.47;13.87;;;;;;;21.26;100.00;100265.64;1708537;83;21878;-91
2022/08/16 03:07:44;;;;;;;17.50;12.68;;;;;;;21.22;100.00;100273.16;1686210;83;21178;-91
2022/08/16 03:10:13;;;;;;;18.77;13.30;;;;;;;21.21;100.00;100275.97;1686766;83;21632;-92
2022/08/16 03:12:45;;;;;;;24.52;12.37;;;;;;;21.24;100.00;100282.22;1683871;83;21063;-92
2022/08/16 03:15:15;;;;;;;18.50;14.00;;;;;;;21.26;100.00;100278.88;1707434;83;21043;-92
2022/08/16 03:17:43;;;;;;;14.85;12.55;;;;;;;21.28;100.00;100286.94;1679100;83;21218;-93
2022/08/16 03:20:13;;;;;;;18.35;14.70;;;;;;;21.30;100.00;100291.22;1664852;83;21028;-94
2022/08/16 03:22:41;;;;;;;15.65;14.00;;;;;;;21.31;100.00;100305.58;1686210;83;20984;-94
2022/08/16 03:25:12;;;;;;;16.17;14.10;;;;;;;21.31;100.00;100310.88;1703732;83;21017;-93
2022/08/16 03:27:43;;;;;;;15.80;14.20;;;;;;;21.29;100.00;100322.16;1686477;83;21126;-91
2022/08/16 03:30:22;;;;;;;17.70;13.95;;;;;;;21.29;100.00;100320.83;1683397;83;21117;-94
2022/08/16 03:32:51;;;;;;;17.30;14.47;;;;;;;21.31;100.00;100311.39;1683469;83;21004;-93
2022/08/16 03:35:23;;;;;;;17.35;14.00;;;;;;;21.33;100.00;100307.53;1686412;84;21024;-92
2022/08/16 03:37:53;;;;;;;;;;;;;;;21.37;100.00;100300.02;1710125;83;21092;-92
2022/08/16 03:40:22;;;;;;;18.02;13.85;;;;;;;21.37;100.00;100292.08;1698870;83;20153;-94
2022/08/16 03:42:50;;;;;;;22.87;14.40;;;;;;;21.39;100.00;100290.86;1673802;84;21142;-93
2022/08/16 03:45:18;;;;;;;19.57;15.45;;;;;;;21.43;100.00;100297.91;1671360;84;21562;-93
2022/08/16 03:47:49;;;;;;;16.02;14.43;;;;;;;21.44;100.00;100301.68;1673662;84;21513;-92
2022/08/16 03:50:17;;;;;;;20.02;16.20;;;;;;;21.45;100.00;100301.19;1650333;85;22219;-94
2022/08/16 03:52:47;;;;;;;24.02;16.02;;;;;;;21.42;100.00;100303.73;1662918;85;21073;-92
2022/08/16 03:55:15;;;;;;;17.73;15.83;;;;;;;21.38;100.00;100301.66;1661545;84;21308;-93
2022/08/16 03:57:43;;;;;;;20.57;15.95;;;;;;;21.31;100.00;100306.09;1663436;84;21617;-92
2022/08/16 04:00:18;;;;;;;20.55;15.83;;;;;;;21.24;100.00;100303.40;1646350;86;21082;-92
2022/08/16 04:02:47;;;;;;;19.60;16.15;;;;;;;21.23;100.00;100289.33;1660156;85;21097;-93
2022/08/16 04:05:24;;;;;;;17.95;15.80;;;;;;;21.25;100.00;100283.86;1664446;85;21050;-91
2022/08/16 04:07:56;;;;;;;26.20;16.07;;;;;;;21.25;100.00;100278.04;1685185;83;21278;-92
2022/08/16 04:10:24;;;;;;;20.72;16.23;;;;;;;21.26;100.00;100266.96;1663065;84;21059;-94
2022/08/16 04:12:52;;;;;;;19.40;16.02;;;;;;;21.26;100.00;100265.64;1662707;85;32597;-92
2022/08/16 04:15:21;;;;;;;25.27;17.50;;;;;;;21.29;100.00;100262.58;1663022;84;21020;-95
2022/08/16 04:17:53;;;;;;;20.40;16.15;;;;;;;21.29;100.00;100258.61;1668003;83;21017;-95
2022/08/16 04:20:24;;;;;;;22.02;16.35;;;;;;;21.28;100.00;100256.97;1662930;86;21152;-92
2022/08/16 04:22:52;;;;;;;22.10;17.45;;;;;;;21.28;100.00;100254.33;1662800;85;20968;-95
2022/08/16 04:25:20;;;;;;;20.25;17.25;;;;;;;21.31;100.00;100242.55;1663342;85;21030;-95
2022/08/16 04:27:50;;;;;;;24.15;17.30;;;;;;;21.36;100.00;100245.42;1663269;86;21043;-95
2022/08/16 04:30:20;;;;;;;21.10;17.42;;;;;;;21.43;100.00;100247.59;1663492;84;21062;-94
2022/08/16 04:32:50;;;;;;;20.02;18.02;;;;;;;21.48;100.00;100251.78;1694236;83;21218;-91
2022/08/16 04:35:22;;;;;;;19.85;16.87;;;;;;;21.51;100.00;100251.41;1663331;84;21082;-95
2022/08/16 04:37:53;;;;;;;21.35;17.60;;;;;;;21.54;100.00;100255.48;1663068;84;21043;-96
2022/08/16 04:40:26;;;;;;;21.45;18.15;;;;;;;21.53;100.00;100261.80;1660797;84;21062;-95
2022/08/16 04:42:55;;;;;;;24.15;18.05;;;;;;;21.56;100.00;100248.17;1663473;84;21552;-95
2022/08/16 04:45:25;;;;;;;26.25;18.80;;;;;;;21.60;100.00;100241.48;1663575;86;21188;-93
2022/08/16 04:47:53;;;;;;;20.10;17.73;;;;;;;21.67;100.00;100237.02;1663207;84;21095;-92
2022/08/16 04:50:25;;;;;;;19.85;17.75;;;;;;;21.74;100.00;100235.73;1668721;84;21027;-93
2022/08/16 04:53:03;;;;;;;22.50;18.27;;;;;;;21.84;100.00;100253.90;1687541;84;21023;-94
2022/08/16 04:55:32;;;;;;;22.30;18.00;;;;;;;21.92;100.00;100279.42;1660269;84;21086;-94
2022/08/16 04:58:00;;;;;;;22.35;17.92;;;;;;;22.02;100.00;100287.30;1659965;86;21154;-93
2022/08/16 05:00:35;;;;;;;21.82;18.00;;;;;;;22.13;100.00;100291.20;1681096;84;21145;-93
2022/08/16 05:03:08;;;;;;;21.85;17.32;;;;;;;22.23;100.00;100289.52;1679873;84;21051;-95
2022/08/16 05:05:41;;;;;;;23.12;19.27;;;;;;;22.35;100.00;100291.08;1652330;85;21127;-94
2022/08/16 05:08:09;;;;;;;21.73;18.15;;;;;;;22.42;100.00;100291.94;1687812;84;21584;-92
2022/08/16 05:10:38;;;;;;;21.60;19.20;;;;;;;22.50;100.00;100300.20;1690463;83;21173;-94
2022/08/16 05:13:07;;;;;;;23.38;18.65;;;;;;;22.58;100.00;100296.55;1690373;84;21012;-94
2022/08/16 05:15:37;;;;;;;21.00;18.80;;;;;;;22.64;100.00;100298.38;1665271;84;21051;-94
2022/08/16 05:18:08;;;;;;;24.18;20.80;;;;;;;22.68;100.00;100304.41;1680062;85;21088;-94
2022/08/16 05:20:41;;;;;;;24.12;19.87;;;;;;;22.73;100.00;100296.34;1677667;85;21047;-94
2022/08/16 05:23:10;;;;;;;26.20;19.48;;;;;;;22.66;100.00;100303.79;1679432;85;21494;-94
2022/08/16 05:25:38;;;;;;;19.87;17.65;;;;;;;22.60;100.00;100316.55;1680472;85;22060;-93
2022/08/16 05:28:09;;;;;;;23.85;18.67;;;;;;;22.55;100.00;100330.94;1654846;85;21699;-92
2022/08/16 05:30:35;;;;;;;21.45;19.35;;;;;;;22.56;100.00;100346.33;1684529;83;21750;-94
2022/08/16 05:33:05;;;;;;;22.20;20.00;;;;;;;22.56;100.00;100348.46;1690652;84;21289;-93
2022/08/16 05:35:35;;;;;;;22.20;19.40;;;;;;;22.57;100.00;100358.58;1665708;85;21170;-94
2022/08/16 05:38:10;;;;;;;23.00;19.62;;;;;;;22.54;100.00;100363.78;1683412;84;22259;-95
2022/08/16 05:40:41;;;;;;;24.18;19.20;;;;;;;22.55;100.00;100381.34;1660467;86;21512;-95
2022/08/16 05:43:08;;;;;;;20.95;18.95;;;;;;;22.56;100.00;100380.30;1681179;85;21086;-92
2022/08/16 05:45:37;;;;;;;21.05;18.77;;;;;;;22.58;100.00;100392.86;1665304;85;21066;-93
2022/08/16 05:48:11;;;;;;;20.88;18.52;;;;;;;22.63;100.00;100402.87;1662593;85;21169;-93
2022/08/16 05:50:49;;;;;;;22.70;20.35;;;;;;;22.66;100.00;100401.97;1658220;86;21158;-94
2022/08/16 05:53:16;;;;;;;29.23;20.55;;;;;;;22.66;100.00;100395.33;1654806;85;21086;-93
2022/08/16 05:55:45;;;;;;;22.67;19.95;;;;;;;22.65;100.00;100384.93;1665445;85;21078;-92
2022/08/16 05:58:13;;;;;;;22.85;20.43;;;;;;;22.60;100.00;100383.37;1672532;84;21065;-93
2022/08/16 06:00:41;;;;;;;26.85;19.98;;;;;;;22.52;100.00;100385.19;1645947;85;21137;-94
2022/08/16 06:03:10;;;;;;;23.25;20.82;;;;;;;22.46;100.00;100389.98;1651919;86;21094;-93
2022/08/16 06:05:57;;;;;;;23.25;20.97;;;;;;;22.34;100.00;100387.05;1653228;86;21147;-93
2022/08/16 06:08:27;;;;;;;26.82;22.48;;;;;;;22.18;100.00;100378.11;1670359;85;21606;-96
2022/08/16 06:10:58;;;;;;;23.45;20.92;;;;;;;22.04;100.00;100380.72;1641539;86;21098;-96
2022/08/16 06:13:30;;;;;;;23.42;19.70;;;;;;;21.92;100.00;100392.87;1671593;84;21141;-96
2022/08/16 06:16:00;;;;;;;24.15;19.67;;;;;;;21.87;100.00;100393.97;1659154;86;21039;-96
2022/08/16 06:18:27;;;;;;;20.80;18.65;;;;;;;21.84;100.00;100400.98;1655415;86;20996;-96
2022/08/16 06:20:56;;;;;;;21.55;19.17;;;;;;;21.86;100.00;100423.64;1637165;86;21500;-95
2022/08/16 06:23:25;;;;;;;20.20;18.10;;;;;;;;;;1659417;86;21085;-94
2022/08/16 06:25:57;;;;;;;22.70;18.25;;;;;;;22.02;100.00;100429.12;1658705;85;21167;-93
2022/08/16 06:28:26;;;;;;;19.42;17.45;;;;;;;22.10;100.00;100420.20;1661088;86;21114;-93
2022/08/16 06:30:54;;;;;;;21.02;17.90;;;;;;;22.18;100.00;100435.12;1661189;86;21000;-92
2022/08/16 06:33:21;;;;;;;21.85;17.57;;;;;;;22.26;100.00;100436.28;1661144;85;21082;-93
2022/08/16 06:35:51;;;;;;;20.95;18.77;;;;;;;22.35;100.00;100436.43;1656800;86;21058;-93
2022/08/16 06:38:23;;;;;;;20.88;18.55;;;;;;;22.45;100.00;100433.95;1661092;86;21179;-93
2022/08/16 06:40:50;;;;;;;21.00;18.30;;;;;;;22.51;100.00;100427.33;1660780;86;21047;-93
2022/08/16 06:43:19;;;;;;;28.07;18.75;;;;;;;22.59;100.00;100421.03;1667768;84;21600;-93
2022/08/16 06:45:47;;;;;;;21.85;19.55;;;;;;;22.64;100.00;100402.67;1660484;85;21341;-92
2022/08/16 06:48:16;;;;;;;23.35;19.57;;;;;;;22.67;100.00;100392.19;1660119;85;21157;-93
2022/08/16 06:50:43;;;;;;;24.32;19.60;;;;;;;22.67;100.00;100393.52;1659791;85;21261;-93
2022/08/16 06:53:10;;;;;;;22.15;19.80;;;;;;;22.63;100.00;100394.42;1641921;83;21589;-93
2022/08/16 06:55:46;;;;;;;21.05;18.23;;;;;;;22.58;100.00;100391.53;1659360;84;21089;-94
2022/08/16 06:58:16;;;;;;;20.00;17.80;;;;;;;22.57;100.00;100384.59;1675707;85;21049;-95
2022/08/16 07:00:47;;;;;;;22.60;19.00;;;;;;;22.54;100.00;100386.34;1678102;84;21048;-94
2022/08/16 07:03:14;;;;;;;21.33;18.98;;;;;;;22.48;100.00;100383.13;1653430;86;21599;-94
2022/08/16 07:05:44;;;;;;;21.57;19.23;;;;;;;22.44;100.00;100377.41;1659028;83;21068;-94
2022/08/16 07:08:12;;;;;;;;;;;;;;;22.40;100.00;100368.23;1658916;83;21612;-94
2022/08/16 07:10:40;;;;;;;20.92;18.77;;;;;;;22.35;100.00;100363.49;1671553;83;20142;-94
2022/08/16 07:13:09;;;;;;;30.25;22.98;;;;;;;22.35;100.00;100374.09;1680923;83;21061;-96
2022/08/16 07:15:37;;;;;;;23.30;20.80;;;;;;;22.37;100.00;100361.95;1672213;85;21160;-95
2022/08/16 07:18:04;;;;;;;30.10;23.85;;;;;;;22.38;100.00;100355.14;1675504;85;21049;-96
2022/08/16 07:20:32;;;;;;;25.00;22.25;;;;;;;22.44;100.00;100351.41;1681045;85;21007;-96
2022/08/16 07:23:00;;;;;;;26.62;23.05;;;;;;;22.46;100.00;100334.79;1683037;85;20966;-96
2022/08/16 07:25:30;;;;;;;26.77;23.92;;;;;;;22.47;100.00;100321.84;1667827;85;21042;-96
2022/08/16 07:27:57;;;;;;;24.80;22.30;;;;;;;22.47;100.00;100311.23;1676404;85;21193;-96
2022/08/16 07:30:27;;;;;;;31.37;24.50;;;;;;;22.46;100.00;100295.00;1683071;85;21055;-94
2022/08/16 07:32:54;;;;;;;31.42;24.45;;;;;;;22.45;100.00;100286.73;1682903;84;21056;-96
2022/08/16 07:35:24;;;;;;;23.50;21.20;;;;;;;22.43;100.00;100278.15;1682794;84;20998;-96
2022/08/16 07:37:52;;;;;;;25.57;21.02;;;;;;;22.43;100.00;100288.27;1682231;85;20986;-96
2022/08/16 07:40:21;;;;;;;23.02;19.90;;;;;;;22.46;100.00;100296.33;1680087;85;21232;-96
2022/08/16 07:42:50;;;;;;;21.70;19.48;;;;;;;22.49;100.00;100303.37;1681826;85;20967;-96
2022/08/16 07:45:18;;;;;;;21.42;18.92;;;;;;;22.54;100.00;100323.99;1681643;84;21096;-94
2022/08/16 07:47:47;;;;;;;20.92;18.75;;;;;;;22.65;100.00;100342.48;1679386;85;21048;-94
2022/08/16 07:50:15;;;;;;;21.73;19.55;;;;;;;22.76;100.00;100354.33;1681610;84;21041;-96
2022/08/16 07:52:44;;;;;;;22.85;20.52;;;;;;;22.90;100.00;100370.56;1686329;84;21768;-95
2022/08/16 07:55:14;;;;;;;22.48;20.08;;;;;;;23.03;100.00;100377.72;1679401;84;21061;-95
2022/08/16 07:57:45;;;;;;;22.42;20.08;;;;;;;23.16;100.00;100390.19;1654587;85;21489;-96
2022/08/16 08:00:13;;;;;;;25.12;20.10;;;;;;;23.25;100.00;100400.95;1657655;85;21100;-96
2022/08/16 08:02:46;;;;;;;20.32;18.23;;;;;;;23.34;100.00;100410.05;1690635;84;21006;-95
2022/08/16 08:05:16;;;;;;;23.62;18.55;;;;;;;23.41;100.00;100406.87;1664190;84;21102;-94
2022/08/16 08:07:45;;;;;;;20.10;17.25;;;;;;;23.49;100.00;100397.36;1672243;84;21574;-95
2022/08/16 08:10:13;;;;;;;23.00;16.97;;;;;;;23.55;100.00;100390.41;1670747;84;21102;-95
2022/08/16 08:12:44;;;;;;;20.68;16.90;;;;;;;23.62;100.00;100384.05;1672244;85;20990;-96
2022/08/16 08:15:13;;;;;;;19.70;15.30;;;;;;;23.65;100.00;100361.55;1670518;85;20998;-95
2022/08/16 08:17:44;;;;;;;15.80;14.18;;;;;;;23.65;100.00;100366.86;1645810;85;22099;-96
2022/08/16 08:20:19;;;;;;;18.90;15.28;;;;;;;23.69;100.00;100387.19;1668158;85;21052;-96
2022/08/16 08:22:48;;;;;;;25.32;14.40;;;;;;;23.77;100.00;100396.28;1660876;85;21093;-95
2022/08/16 08:25:16;;;;;;;19.30;14.87;;;;;;;23.88;100.00;100411.59;1678345;85;21034;-96
2022/08/16 08:27:43;;;;;;;21.12;16.20;;;;;;;23.99;100.00;100412.02;1654997;85;21210;-96
2022/08/16 08:30:11;;;;;;;18.77;15.63;;;;;;;24.09;100.00;100421.19;1671568;84;21128;-96
2022/08/16 08:32:40;;;;;;;16.45;14.73;;;;;;;24.14;100.00;100412.58;1689475;84;21088;-95
2022/08/16 08:35:08;;;;;;;17.37;13.85;;;;;;;24.17;100.00;100409.48;1665654;85;21018;-96
2022/08/16 08:37:37;;;;;;;18.48;14.20;;;;;;;24.18;100.00;100413.78;1666686;85;21026;-96
2022/08/16 08:40:10;;;;;;;16.97;14.00;;;;;;;24.22;100.00;100415.00;1662120;85;21042;-96
2022/08/16 08:42:46;;;;;;;17.20;13.53;;;;;;;24.29;100.00;100413.63;1658695;85;21073;-96
2022/08/16 08:45:14;;;;;;;17.67;14.38;;;;;;;24.32;100.00;100411.05;1662856;85;21082;-95
2022/08/16 08:47:45;;;;;;;15.93;13.72;;;;;;;24.37;100.00;100405.93;1660354;85;21095;-95
2022/08/16 08:50:16;;;;;;;16.77;14.28;;;;;;;24.41;100.00;100395.16;1663639;85;21543;-95
2022/08/16 08:52:46;;;;;;;17.30;14.25;;;;;;;24.44;100.00;100395.27;1666217;85;21065;-96
2022/08/16 08:55:15;;;;;;;15.17;13.67;;;;;;;24.45;100.00;100396.37;1644898;85;21278;-96
2022/08/16 08:57:46;;;;;;;18.27;13.18;;;;;;;24.49;100.00;100387.45;1664800;85;21347;-96
2022/08/16 09:00:26;;;;;;;16.45;14.23;;;;;;;24.49;100.00;100378.94;1653810;86;21043;-96
2022/08/16 09:02:56;;;;;;;15.45;12.73;;;;;;;24.49;100.00;100380.27;1669472;85;21017;-95
2022/08/16 09:05:26;;;;;;;18.32;15.60;;;;;;;24.49;100.00;100375.47;1669743;85;21068;-95
2022/08/16 09:07:58;;;;;;;19.77;15.78;;;;;;;24.51;100.00;100364.91;1656808;85;21170;-94
2022/08/16 09:10:27;;;;;;;17.25;14.40;;;;;;;24.56;100.00;100377.05;1666854;85;21045;-96
2022/08/16 09:12:55;;;;;;;20.12;15.80;;;;;;;24.62;100.00;100369.27;1661603;85;21021;-96
2022/08/16 09:15:26;;;;;;;17.23;14.63;;;;;;;24.71;100.00;100374.66;1673749;84;21066;-94
2022/08/16 09:17:54;;;;;;;18.32;16.12;;;;;;;24.83;100.00;100364.94;1662710;83;21113;-94
2022/08/16 09:20:28;;;;;;;19.82;15.68;;;;;;;24.90;100.00;100366.23;1655078;85;21186;-96
2022/08/16 09:22:58;;;;;;;23.20;19.05;;;;;;;24.94;100.00;100355.96;1669057;85;21493;-94
2022/08/16 09:25:27;;;;;;;20.25;16.95;;;;;;;24.98;100.00;100347.82;1654159;85;21017;-93
2022/08/16 09:28:03;;;;;;;19.37;17.20;;;;;;;25.03;100.00;100346.67;1661105;83;21076;-95
2022/08/16 09:30:35;;;;;;;26.05;19.12;;;;;;;25.07;100.00;100345.19;1680533;84;21022;-94
2022/08/16 09:33:06;;;;;;;19.70;16.75;;;;;;;25.10;100.00;100341.27;1678801;83;21079;-95
2022/08/16 09:35:35;;;;;;;18.92;16.40;;;;;;;25.15;100.00;100336.12;1693859;84;21042;-93
2022/08/16 09:38:06;;;;;;;22.73;17.17;;;;;;;25.26;100.00;100337.24;1662263;85;21036;-96
2022/08/16 09:40:33;;;;;;;19.17;16.95;;;;;;;25.36;100.00;100336.20;1669803;85;21096;-95
2022/08/16 09:43:03;;;;;;;23.35;18.55;;;;;;;25.48;100.00;100327.82;1661240;85;21011;-94
2022/08/16 09:45:37;;;;;;;20.97;18.10;;;;;;;25.54;100.00;100325.30;1656540;85;21906;-96
2022/08/16 09:48:10;;;;;;;23.55;17.73;;;;;;;25.48;100.00;100321.16;1651366;85;21040;-96
2022/08/16 09:50:40;;;;;;;24.40;18.15;;;;;;;25.48;100.00;100321.66;1656109;85;21026;-96
2022/08/16 09:53:17;;;;;;;21.73;17.80;;;;;;;25.42;100.00;100326.05;1668517;84;21058;-95
2022/08/16 09:55:48;;;;;;;21.20;17.77;;;;;;;25.34;100.00;100322.30;1657670;85;21507;-96
2022/08/16 09:58:22;;;;;;;21.85;18.12;;;;;;;25.32;100.00;100327.03;1668300;84;21880;-96
2022/08/16 10:00:53;;;;;;;19.52;16.90;;;;;;;25.31;100.00;100332.06;1662978;85;21041;-96
2022/08/16 10:03:20;;;;;;;24.12;17.20;;;;;;;25.33;100.00;100337.99;1652761;84;21577;-96
2022/08/16 10:05:49;;;;;;;22.02;17.40;;;;;;;25.42;100.00;100330.55;1658926;85;20974;-95
2022/08/16 10:08:19;;;;;;;17.87;16.00;;;;;;;25.49;100.00;100338.78;1663848;85;21579;-95
2022/08/16 10:13:34;;;;;;;24.07;17.98;;;;;;;25.66;100.00;100339.00;1665279;85;21045;-95
2022/08/16 10:16:02;;;;;;;22.85;18.00;;;;;;;25.74;100.00;100345.06;1669954;85;21122;-96
2022/08/16 10:18:33;;;;;;;23.12;15.85;;;;;;;25.89;100.00;100359.36;1666508;85;20966;-94
2022/08/16 10:21:02;;;;;;;16.17;14.10;;;;;;;26.07;100.00;100356.69;1668656;85;21050;-96
2022/08/16 10:23:31;;;;;;;;;;;;;;;26.17;100.00;100350.84;1659067;84;21364;-90
2022/08/16 10:25:58;;;;;;;17.77;14.50;;;;;;;26.27;100.00;100348.95;1655127;85;20588;-90
2022/08/16 10:28:28;;;;;;;18.75;13.70;;;;;;;26.36;100.00;100338.80;1656399;85;21027;-90
2022/08/16 10:30:55;;;;;;;18.77;14.05;;;;;;;26.52;100.00;100338.66;1662050;85;20998;-90
2022/08/16 10:33:28;;;;;;;21.17;12.98;;;;;;;26.70;100.00;100332.42;1661376;85;21036;-91
2022/08/16 10:36:01;;;;;;;14.90;13.25;;;;;;;26.81;100.00;100337.00;1657149;85;21156;-90
2022/08/16 10:38:30;;;;;;;18.48;12.80;;;;;;;26.93;100.00;100343.70;1665614;85;21475;-90
2022/08/16 10:40:59;;;;;;;19.92;10.93;;;;;;;27.02;100.00;100340.98;1662891;85;21041;-90
2022/08/16 10:43:27;;;;;;;17.23;11.18;;;;;;;27.07;100.00;100345.09;1660720;85;21033;-90
2022/08/16 10:45:54;;;;;;;13.00;9.55;;;;;;;27.03;100.00;100347.12;1659447;85;21090;-91
2022/08/16 10:48:21;;;;;;;15.32;9.03;;;;;;;26.98;100.00;100345.14;1680838;84;21291;-90
2022/08/16 10:50:48;;;;;;;17.60;9.95;;;;;;;26.92;100.00;100351.41;1675030;84;21032;-90
2022/08/16 10:53:16;;;;;;;16.93;9.73;;;;;;;26.85;100.00;100348.84;1688010;84;21074;-90
2022/08/16 10:55:46;;;;;;;18.77;9.03;;;;;;;26.82;100.00;100349.83;1696174;84;21042;-91
2022/08/16 10:58:15;;;;;;;12.58;8.73;;;;;;;26.80;100.00;100346.59;1662737;84;21091;-92
2022/08/16 11:00:46;;;;;;;17.17;8.83;;;;;;;26.79;100.00;100348.97;1674643;84;21160;-91
2022/08/16 11:03:15;;;;;;;13.03;9.28;;;;;;;26.74;100.00;100348.28;1663518;84;21072;-91
2022/08/16 11:05:45;;;;;;;13.55;8.40;;;;;;;26.66;100.00;100352.09;1666421;84;21073;-90
2022/08/16 11:08:13;;;;;;;13.77;7.67;;;;;;;26.55;100.00;100354.22;1685867;84;21052;-91
2022/08/16 11:10:44;;;;;;;16.00;7.25;;;;;;;26.53;100.00;100356.30;1674365;84;21048;-90
2022/08/16 11:13:17;;;;;;;15.38;8.20;;;;;;;26.65;100.00;100361.14;1678870;84;21173;-90
2022/08/16 11:15:45;;;;;;;15.60;8.50;;;;;;;26.82;100.00;100365.84;1681932;84;21629;-89
2022/08/16 11:18:14;;;;;;;12.43;8.73;;;;;;;26.92;100.00;100367.44;1690543;84;21067;-91
2022/08/16 11:20:44;;;;;;;14.33;8.40;;;;;;;26.98;100.00;100367.05;1675162;84;21109;-91